sensor_id;sensor_type;location;lat;lon;timestamp;P1;P2;P0
80555;PMS5003;69889;55.040;73.076;2023-07-13T00:01:29;12.75;11.50;9.00
80555;PMS5003;69889;55.040;73.076;2023-07-13T00:03:57;18.00;16.00;11.00
80555;PMS5003;69889;55.040;73.076;2023-07-13T00:06:24;14.75;13.25;10.00
80555;PMS5003;69889;55.040;73.076;2023-07-13T00:08:50;14.00;13.75;10.00
80555;PMS5003;69889;55.040;73.076;2023-07-13T00:11:17;16.00;15.00;11.00
80555;PMS5003;69889;55.040;73.076;2023-07-13T00:13:43;18.00;16.00;10.00
80555;PMS5003;69889;55.040;73.076;2023-07-13T00:16:10;15.00;14.00;9.00
80555;PMS5003;69889;55.040;73.076;2023-07-13T00:18:37;16.00;15.00;10.00
80555;PMS5003;69889;55.040;73.076;2023-07-13T00:21:04;16.00;14.00;9.00
80555;PMS5003;69889;55.040;73.076;2023-07-13T00:23:38;15.00;14.00;10.00
80555;PMS5003;69889;55.040;73.076;2023-07-13T00:26:06;14.00;13.75;10.00
80555;PMS5003;69889;55.040;73.076;2023-07-13T00:28:33;14.00;13.00;9.25
80555;PMS5003;69889;55.040;73.076;2023-07-13T00:31:01;14.50;13.75;10.00
80555;PMS5003;69889;55.040;73.076;2023-07-13T00:33:28;13.00;12.00;8.25
80555;PMS5003;69889;55.040;73.076;2023-07-13T00:35:57;14.00;13.00;9.00
80555;PMS5003;69889;55.040;73.076;2023-07-13T00:38:24;14.00;13.00;9.00
80555;PMS5003;69889;55.040;73.076;2023-07-13T00:40:50;16.00;13.75;9.25
80555;PMS5003;69889;55.040;73.076;2023-07-13T00:43:18;14.00;13.00;10.00
80555;PMS5003;69889;55.040;73.076;2023-07-13T00:48:12;14.00;13.00;9.00
80555;PMS5003;69889;55.040;73.076;2023-07-13T00:50:41;16.00;14.50;10.00
80555;PMS5003;69889;55.040;73.076;2023-07-13T00:53:14;17.00;15.00;11.00
80555;PMS5003;69889;55.040;73.076;2023-07-13T00:55:41;14.00;13.00;9.75
80555;PMS5003;69889;55.040;73.076;2023-07-13T00:58:08;15.00;14.00;9.00
80555;PMS5003;69889;55.040;73.076;2023-07-13T01:00:35;15.00;14.00;9.00
80555;PMS5003;69889;55.040;73.076;2023-07-13T01:03:03;15.75;14.00;10.00
80555;PMS5003;69889;55.040;73.076;2023-07-13T01:05:31;14.00;13.00;9.00
80555;PMS5003;69889;55.040;73.076;2023-07-13T01:07:59;15.25;14.00;9.00
80555;PMS5003;69889;55.040;73.076;2023-07-13T01:10:27;16.00;14.50;10.00
80555;PMS5003;69889;55.040;73.076;2023-07-13T01:12:54;17.25;14.50;10.00
80555;PMS5003;69889;55.040;73.076;2023-07-13T01:18:10;15.00;14.00;10.00
80555;PMS5003;69889;55.040;73.076;2023-07-13T01:20:37;15.50;14.00;9.00
80555;PMS5003;69889;55.040;73.076;2023-07-13T01:23:09;15.00;14.00;9.50
80555;PMS5003;69889;55.040;73.076;2023-07-13T01:25:37;15.50;14.50;10.00
80555;PMS5003;69889;55.040;73.076;2023-07-13T01:28:05;15.00;13.50;9.25
80555;PMS5003;69889;55.040;73.076;2023-07-13T01:30:32;15.25;14.00;10.00
80555;PMS5003;69889;55.040;73.076;2023-07-13T01:33:01;15.25;14.00;9.00
80555;PMS5003;69889;55.040;73.076;2023-07-13T01:35:28;16.00;14.00;10.00
80555;PMS5003;69889;55.040;73.076;2023-07-13T01:37:54;13.75;13.00;10.00
80555;PMS5003;69889;55.040;73.076;2023-07-13T01:40:23;17.00;15.50;11.00
80555;PMS5003;69889;55.040;73.076;2023-07-13T01:42:50;14.75;14.00;10.00
80555;PMS5003;69889;55.040;73.076;2023-07-13T01:45:19;15.00;14.00;10.00
80555;PMS5003;69889;55.040;73.076;2023-07-13T01:47:47;17.00;15.25;10.25
80555;PMS5003;69889;55.040;73.076;2023-07-13T01:50:13;15.00;14.00;10.00
80555;PMS5003;69889;55.040;73.076;2023-07-13T01:52:40;14.75;14.50;9.75
80555;PMS5003;69889;55.040;73.076;2023-07-13T01:55:06;15.50;14.50;11.00
80555;PMS5003;69889;55.040;73.076;2023-07-13T01:57:33;17.00;16.00;10.25
80555;PMS5003;69889;55.040;73.076;2023-07-13T02:00:02;17.00;16.00;12.00
80555;PMS5003;69889;55.040;73.076;2023-07-13T02:02:42;18.00;17.00;11.00
80555;PMS5003;69889;55.040;73.076;2023-07-13T02:05:10;18.50;16.75;12.00
80555;PMS5003;69889;55.040;73.076;2023-07-13T02:07:38;17.75;15.75;11.00
80555;PMS5003;69889;55.040;73.076;2023-07-13T02:10:06;19.00;17.00;12.00
80555;PMS5003;69889;55.040;73.076;2023-07-13T02:12:33;18.00;16.00;11.50
80555;PMS5003;69889;55.040;73.076;2023-07-13T02:15:00;18.75;18.00;12.25
80555;PMS5003;69889;55.040;73.076;2023-07-13T02:17:32;22.75;21.00;14.00
80555;PMS5003;69889;55.040;73.076;2023-07-13T02:19:58;21.75;19.75;13.00
80555;PMS5003;69889;55.040;73.076;2023-07-13T02:22:25;22.00;21.00;14.00
80555;PMS5003;69889;55.040;73.076;2023-07-13T02:24:52;24.50;22.50;15.75
80555;PMS5003;69889;55.040;73.076;2023-07-13T02:27:18;21.00;20.00;14.00
80555;PMS5003;69889;55.040;73.076;2023-07-13T02:29:45;23.00;21.75;16.00
80555;PMS5003;69889;55.040;73.076;2023-07-13T02:32:12;24.00;22.00;16.00
80555;PMS5003;69889;55.040;73.076;2023-07-13T02:34:40;22.00;21.00;14.75
80555;PMS5003;69889;55.040;73.076;2023-07-13T02:37:06;22.75;21.00;16.00
80555;PMS5003;69889;55.040;73.076;2023-07-13T02:39:34;25.00;23.00;16.00
80555;PMS5003;69889;55.040;73.076;2023-07-13T02:42:03;24.50;21.75;15.00
80555;PMS5003;69889;55.040;73.076;2023-07-13T02:44:30;27.00;24.00;17.00
80555;PMS5003;69889;55.040;73.076;2023-07-13T02:46:56;23.50;22.50;16.00
80555;PMS5003;69889;55.040;73.076;2023-07-13T02:49:23;26.25;23.75;17.00
80555;PMS5003;69889;55.040;73.076;2023-07-13T02:51:49;31.00;27.00;18.00
80555;PMS5003;69889;55.040;73.076;2023-07-13T02:54:16;32.00;27.50;19.00
80555;PMS5003;69889;55.040;73.076;2023-07-13T02:56:42;28.00;25.00;18.00
80555;PMS5003;69889;55.040;73.076;2023-07-13T02:59:09;26.50;24.00;17.00
80555;PMS5003;69889;55.040;73.076;2023-07-13T03:01:37;30.00;26.25;18.00
80555;PMS5003;69889;55.040;73.076;2023-07-13T03:04:04;32.00;27.75;18.50
80555;PMS5003;69889;55.040;73.076;2023-07-13T03:06:34;29.75;26.25;19.00
80555;PMS5003;69889;55.040;73.076;2023-07-13T03:09:01;30.00;26.50;19.00
80555;PMS5003;69889;55.040;73.076;2023-07-13T03:11:29;31.00;27.00;19.00
80555;PMS5003;69889;55.040;73.076;2023-07-13T03:14:05;31.00;27.00;19.00
80555;PMS5003;69889;55.040;73.076;2023-07-13T03:16:36;31.25;27.50;19.75
80555;PMS5003;69889;55.040;73.076;2023-07-13T03:19:02;34.00;30.00;21.00
80555;PMS5003;69889;55.040;73.076;2023-07-13T03:21:29;37.00;31.00;20.75
80555;PMS5003;69889;55.040;73.076;2023-07-13T03:23:56;34.00;30.00;21.00
80555;PMS5003;69889;55.040;73.076;2023-07-13T03:26:23;34.25;29.75;20.00
80555;PMS5003;69889;55.040;73.076;2023-07-13T03:28:49;33.75;29.75;21.00
80555;PMS5003;69889;55.040;73.076;2023-07-13T03:31:25;31.50;27.75;20.00
80555;PMS5003;69889;55.040;73.076;2023-07-13T03:33:53;34.50;30.00;20.00
80555;PMS5003;69889;55.040;73.076;2023-07-13T03:36:21;34.50;30.00;21.00
80555;PMS5003;69889;55.040;73.076;2023-07-13T03:38:50;34.50;29.75;21.00
80555;PMS5003;69889;55.040;73.076;2023-07-13T03:41:20;34.75;30.00;21.25
80555;PMS5003;69889;55.040;73.076;2023-07-13T03:43:48;34.50;30.00;20.50
80555;PMS5003;69889;55.040;73.076;2023-07-13T03:46:17;35.50;31.00;22.00
80555;PMS5003;69889;55.040;73.076;2023-07-13T03:48:44;34.75;30.50;20.75
80555;PMS5003;69889;55.040;73.076;2023-07-13T03:51:12;36.50;31.00;22.00
80555;PMS5003;69889;55.040;73.076;2023-07-13T03:53:42;32.50;28.25;20.00
80555;PMS5003;69889;55.040;73.076;2023-07-13T03:56:09;32.75;28.75;20.00
80555;PMS5003;69889;55.040;73.076;2023-07-13T03:58:38;35.50;31.00;21.50
80555;PMS5003;69889;55.040;73.076;2023-07-13T04:01:11;35.00;31.00;22.00
80555;PMS5003;69889;55.040;73.076;2023-07-13T04:03:39;36.00;32.00;22.00
80555;PMS5003;69889;55.040;73.076;2023-07-13T04:06:07;34.00;29.50;21.00
80555;PMS5003;69889;55.040;73.076;2023-07-13T04:08:34;35.00;30.50;21.50
80555;PMS5003;69889;55.040;73.076;2023-07-13T04:11:02;38.00;32.00;22.00
80555;PMS5003;69889;55.040;73.076;2023-07-13T04:13:29;38.00;32.50;22.00
80555;PMS5003;69889;55.040;73.076;2023-07-13T04:15:56;39.00;32.75;22.00
80555;PMS5003;69889;55.040;73.076;2023-07-13T04:18:22;33.25;29.75;21.00
80555;PMS5003;69889;55.040;73.076;2023-07-13T04:20:49;37.75;32.00;22.00
80555;PMS5003;69889;55.040;73.076;2023-07-13T04:23:16;36.00;31.00;22.50
80555;PMS5003;69889;55.040;73.076;2023-07-13T04:25:43;37.25;32.25;22.00
80555;PMS5003;69889;55.040;73.076;2023-07-13T04:28:11;37.25;32.75;22.25
80555;PMS5003;69889;55.040;73.076;2023-07-13T04:30:37;37.00;32.25;22.00
80555;PMS5003;69889;55.040;73.076;2023-07-13T04:33:04;36.00;31.00;22.00
80555;PMS5003;69889;55.040;73.076;2023-07-13T04:35:30;33.75;30.00;22.00
80555;PMS5003;69889;55.040;73.076;2023-07-13T04:37:58;35.00;31.00;22.00
80555;PMS5003;69889;55.040;73.076;2023-07-13T04:40:25;37.00;32.00;22.75
80555;PMS5003;69889;55.040;73.076;2023-07-13T04:42:52;36.00;31.00;21.00
80555;PMS5003;69889;55.040;73.076;2023-07-13T04:45:19;37.00;33.00;23.00
80555;PMS5003;69889;55.040;73.076;2023-07-13T04:47:45;33.75;29.75;21.00
80555;PMS5003;69889;55.040;73.076;2023-07-13T04:50:12;34.00;29.25;20.75
80555;PMS5003;69889;55.040;73.076;2023-07-13T04:52:41;36.00;32.00;22.00
80555;PMS5003;69889;55.040;73.076;2023-07-13T04:55:08;36.75;32.25;22.00
80555;PMS5003;69889;55.040;73.076;2023-07-13T04:57:34;35.00;30.75;22.00
80555;PMS5003;69889;55.040;73.076;2023-07-13T05:00:01;36.00;32.00;22.50
80555;PMS5003;69889;55.040;73.076;2023-07-13T05:02:34;37.00;32.00;22.00
80555;PMS5003;69889;55.040;73.076;2023-07-13T05:05:01;35.50;30.75;22.00
80555;PMS5003;69889;55.040;73.076;2023-07-13T05:07:29;34.75;30.50;21.00
80555;PMS5003;69889;55.040;73.076;2023-07-13T05:09:56;39.00;33.00;22.25
80555;PMS5003;69889;55.040;73.076;2023-07-13T05:12:37;37.75;32.50;23.00
80555;PMS5003;69889;55.040;73.076;2023-07-13T05:15:04;36.00;31.50;22.00
80555;PMS5003;69889;55.040;73.076;2023-07-13T05:17:31;35.25;31.25;21.75
80555;PMS5003;69889;55.040;73.076;2023-07-13T05:19:57;33.00;29.00;21.00
80555;PMS5003;69889;55.040;73.076;2023-07-13T05:22:24;34.25;30.50;21.50
80555;PMS5003;69889;55.040;73.076;2023-07-13T05:24:50;35.25;30.50;21.75
80555;PMS5003;69889;55.040;73.076;2023-07-13T05:27:18;37.00;32.00;22.00
80555;PMS5003;69889;55.040;73.076;2023-07-13T05:29:45;34.75;31.00;22.00
80555;PMS5003;69889;55.040;73.076;2023-07-13T05:32:11;35.00;31.00;22.00
80555;PMS5003;69889;55.040;73.076;2023-07-13T05:34:38;38.25;33.00;23.00
80555;PMS5003;69889;55.040;73.076;2023-07-13T05:37:07;36.00;31.50;22.25
80555;PMS5003;69889;55.040;73.076;2023-07-13T05:39:33;37.50;33.00;23.00
80555;PMS5003;69889;55.040;73.076;2023-07-13T05:42:00;36.00;31.00;21.50
80555;PMS5003;69889;55.040;73.076;2023-07-13T05:44:26;35.00;30.75;21.75
80555;PMS5003;69889;55.040;73.076;2023-07-13T05:46:53;36.00;31.00;23.00
80555;PMS5003;69889;55.040;73.076;2023-07-13T05:49:22;36.00;31.25;21.75
80555;PMS5003;69889;55.040;73.076;2023-07-13T05:51:48;36.00;31.00;21.50
80555;PMS5003;69889;55.040;73.076;2023-07-13T05:54:15;33.75;30.00;21.00
80555;PMS5003;69889;55.040;73.076;2023-07-13T05:56:42;36.00;31.00;21.75
80555;PMS5003;69889;55.040;73.076;2023-07-13T05:59:08;35.50;30.75;20.75
80555;PMS5003;69889;55.040;73.076;2023-07-13T06:01:36;33.75;30.00;21.00
80555;PMS5003;69889;55.040;73.076;2023-07-13T06:04:03;33.00;29.00;21.00
80555;PMS5003;69889;55.040;73.076;2023-07-13T06:06:30;32.75;28.50;20.50
80555;PMS5003;69889;55.040;73.076;2023-07-13T06:08:56;32.50;27.75;19.25
80555;PMS5003;69889;55.040;73.076;2023-07-13T06:11:23;32.25;28.75;21.00
80555;PMS5003;69889;55.040;73.076;2023-07-13T06:13:50;33.00;29.25;20.50
80555;PMS5003;69889;55.040;73.076;2023-07-13T06:16:17;34.00;29.00;20.00
80555;PMS5003;69889;55.040;73.076;2023-07-13T06:18:44;35.50;30.75;21.00
80555;PMS5003;69889;55.040;73.076;2023-07-13T06:21:12;32.75;28.25;20.00
80555;PMS5003;69889;55.040;73.076;2023-07-13T06:23:39;36.25;30.25;21.00
80555;PMS5003;69889;55.040;73.076;2023-07-13T06:26:06;33.00;28.00;19.75
80555;PMS5003;69889;55.040;73.076;2023-07-13T06:28:32;38.00;32.00;21.00
80555;PMS5003;69889;55.040;73.076;2023-07-13T06:31:00;35.25;30.50;21.00
80555;PMS5003;69889;55.040;73.076;2023-07-13T06:33:27;36.00;30.50;21.00
80555;PMS5003;69889;55.040;73.076;2023-07-13T06:35:54;40.00;33.50;23.00
80555;PMS5003;69889;55.040;73.076;2023-07-13T06:38:23;43.25;35.00;23.25
80555;PMS5003;69889;55.040;73.076;2023-07-13T06:40:49;41.50;34.75;23.00
80555;PMS5003;69889;55.040;73.076;2023-07-13T06:43:16;41.75;34.00;22.75
80555;PMS5003;69889;55.040;73.076;2023-07-13T06:45:44;39.50;33.00;22.00
80555;PMS5003;69889;55.040;73.076;2023-07-13T06:48:17;41.00;33.50;23.00
80555;PMS5003;69889;55.040;73.076;2023-07-13T06:50:44;44.00;36.00;23.75
80555;PMS5003;69889;55.040;73.076;2023-07-13T06:53:11;44.00;36.00;23.25
80555;PMS5003;69889;55.040;73.076;2023-07-13T06:55:39;41.25;35.25;24.00
80555;PMS5003;69889;55.040;73.076;2023-07-13T06:58:06;40.50;34.00;23.00
80555;PMS5003;69889;55.040;73.076;2023-07-13T07:00:33;40.75;34.50;23.50
80555;PMS5003;69889;55.040;73.076;2023-07-13T07:03:00;39.50;33.00;22.25
80555;PMS5003;69889;55.040;73.076;2023-07-13T07:05:26;39.50;32.75;22.00
80555;PMS5003;69889;55.040;73.076;2023-07-13T07:07:54;37.75;32.25;22.00
80555;PMS5003;69889;55.040;73.076;2023-07-13T07:10:21;38.50;32.00;22.00
80555;PMS5003;69889;55.040;73.076;2023-07-13T07:12:51;35.50;31.00;22.00
80555;PMS5003;69889;55.040;73.076;2023-07-13T07:15:18;40.50;33.75;22.75
80555;PMS5003;69889;55.040;73.076;2023-07-13T07:17:44;37.00;31.50;23.00
80555;PMS5003;69889;55.040;73.076;2023-07-13T07:20:11;37.00;31.75;22.00
80555;PMS5003;69889;55.040;73.076;2023-07-13T07:22:37;35.00;29.25;20.00
80555;PMS5003;69889;55.040;73.076;2023-07-13T07:25:04;35.00;30.00;19.00
80555;PMS5003;69889;55.040;73.076;2023-07-13T07:27:30;32.50;27.75;19.00
80555;PMS5003;69889;55.040;73.076;2023-07-13T07:29:57;30.25;26.50;17.50
80555;PMS5003;69889;55.040;73.076;2023-07-13T07:32:23;31.00;27.00;18.50
80555;PMS5003;69889;55.040;73.076;2023-07-13T07:34:50;29.00;25.00;17.00
80555;PMS5003;69889;55.040;73.076;2023-07-13T07:37:16;30.25;26.00;18.00
80555;PMS5003;69889;55.040;73.076;2023-07-13T07:39:43;26.25;23.25;16.00
80555;PMS5003;69889;55.040;73.076;2023-07-13T07:42:10;32.50;27.00;18.75
80555;PMS5003;69889;55.040;73.076;2023-07-13T07:44:36;30.75;26.50;18.50
80555;PMS5003;69889;55.040;73.076;2023-07-13T07:47:06;22.75;21.00;15.00
80555;PMS5003;69889;55.040;73.076;2023-07-13T07:49:33;24.50;21.75;15.00
80555;PMS5003;69889;55.040;73.076;2023-07-13T07:52:00;21.75;20.75;15.00
80555;PMS5003;69889;55.040;73.076;2023-07-13T07:54:26;23.00;21.00;15.00
80555;PMS5003;69889;55.040;73.076;2023-07-13T07:56:53;24.00;22.00;15.25
80555;PMS5003;69889;55.040;73.076;2023-07-13T07:59:19;21.75;21.50;14.75
80555;PMS5003;69889;55.040;73.076;2023-07-13T08:01:46;25.00;23.00;16.00
80555;PMS5003;69889;55.040;73.076;2023-07-13T08:04:14;23.00;21.00;15.00
80555;PMS5003;69889;55.040;73.076;2023-07-13T08:06:41;23.25;20.75;14.50
80555;PMS5003;69889;55.040;73.076;2023-07-13T08:09:08;21.50;19.75;14.00
80555;PMS5003;69889;55.040;73.076;2023-07-13T08:11:34;24.50;22.50;15.25
80555;PMS5003;69889;55.040;73.076;2023-07-13T08:14:02;25.00;22.00;15.50
80555;PMS5003;69889;55.040;73.076;2023-07-13T08:16:28;21.00;19.75;14.00
80555;PMS5003;69889;55.040;73.076;2023-07-13T08:18:55;15.00;14.00;10.00
80555;PMS5003;69889;55.040;73.076;2023-07-13T08:21:21;13.25;12.75;8.25
80555;PMS5003;69889;55.040;73.076;2023-07-13T08:23:48;14.50;13.75;9.00
80555;PMS5003;69889;55.040;73.076;2023-07-13T08:26:14;16.50;15.75;11.00
80555;PMS5003;69889;55.040;73.076;2023-07-13T08:28:41;15.00;15.00;11.00
80555;PMS5003;69889;55.040;73.076;2023-07-13T08:31:08;18.00;17.00;13.00
80555;PMS5003;69889;55.040;73.076;2023-07-13T08:33:34;17.00;16.00;12.00
80555;PMS5003;69889;55.040;73.076;2023-07-13T08:36:02;16.00;15.00;11.00
80555;PMS5003;69889;55.040;73.076;2023-07-13T08:38:28;17.00;16.00;12.50
80555;PMS5003;69889;55.040;73.076;2023-07-13T08:40:55;18.00;17.00;12.00
80555;PMS5003;69889;55.040;73.076;2023-07-13T08:43:24;17.25;16.75;11.50
80555;PMS5003;69889;55.040;73.076;2023-07-13T08:46:01;17.00;16.00;11.75
80555;PMS5003;69889;55.040;73.076;2023-07-13T08:48:30;18.00;16.00;11.00
80555;PMS5003;69889;55.040;73.076;2023-07-13T08:53:28;16.75;15.75;11.00
80555;PMS5003;69889;55.040;73.076;2023-07-13T08:55:58;18.00;17.00;11.00
80555;PMS5003;69889;55.040;73.076;2023-07-13T08:58:25;15.50;15.00;10.75
80555;PMS5003;69889;55.040;73.076;2023-07-13T09:01:12;17.00;16.00;11.00
80555;PMS5003;69889;55.040;73.076;2023-07-13T09:03:45;15.25;14.00;9.25
80555;PMS5003;69889;55.040;73.076;2023-07-13T09:06:14;14.00;13.00;10.00
80555;PMS5003;69889;55.040;73.076;2023-07-13T09:08:44;11.00;11.00;8.00
80555;PMS5003;69889;55.040;73.076;2023-07-13T09:11:28;16.00;14.50;9.25
80555;PMS5003;69889;55.040;73.076;2023-07-13T09:16:33;14.00;14.00;10.00
80555;PMS5003;69889;55.040;73.076;2023-07-13T09:19:02;8.00;7.00;5.00
80555;PMS5003;69889;55.040;73.076;2023-07-13T09:21:32;11.00;10.00;6.00
80555;PMS5003;69889;55.040;73.076;2023-07-13T09:24:01;9.00;9.00;6.00
80555;PMS5003;69889;55.040;73.076;2023-07-13T09:26:30;9.00;8.50;6.50
80555;PMS5003;69889;55.040;73.076;2023-07-13T09:29:03;11.00;10.00;7.00
80555;PMS5003;69889;55.040;73.076;2023-07-13T09:31:40;12.00;11.75;8.00
80555;PMS5003;69889;55.040;73.076;2023-07-13T09:34:11;12.75;12.50;9.00
80555;PMS5003;69889;55.040;73.076;2023-07-13T09:36:38;11.75;11.50;8.25
80555;PMS5003;69889;55.040;73.076;2023-07-13T09:44:27;13.00;12.00;8.25
80555;PMS5003;69889;55.040;73.076;2023-07-13T09:46:56;11.00;10.25;7.00
80555;PMS5003;69889;55.040;73.076;2023-07-13T09:49:26;12.50;12.00;9.00
80555;PMS5003;69889;55.040;73.076;2023-07-13T09:52:00;16.00;14.00;10.00
80555;PMS5003;69889;55.040;73.076;2023-07-13T09:54:32;12.00;11.25;9.00
80555;PMS5003;69889;55.040;73.076;2023-07-13T09:56:59;14.00;13.00;9.00
80555;PMS5003;69889;55.040;73.076;2023-07-13T09:59:29;14.50;13.00;8.25
80555;PMS5003;69889;55.040;73.076;2023-07-13T10:01:56;13.00;13.00;9.00
80555;PMS5003;69889;55.040;73.076;2023-07-13T10:04:30;12.00;11.00;8.00
80555;PMS5003;69889;55.040;73.076;2023-07-13T10:07:05;13.00;12.00;9.75
80555;PMS5003;69889;55.040;73.076;2023-07-13T10:09:32;16.00;14.00;9.50
80555;PMS5003;69889;55.040;73.076;2023-07-13T10:11:58;12.00;12.00;8.00
80555;PMS5003;69889;55.040;73.076;2023-07-13T10:14:25;13.00;12.00;8.75
80555;PMS5003;69889;55.040;73.076;2023-07-13T10:16:55;13.00;12.00;9.00
80555;PMS5003;69889;55.040;73.076;2023-07-13T10:19:25;12.00;11.00;8.00
80555;PMS5003;69889;55.040;73.076;2023-07-13T10:21:53;11.25;10.25;8.00
80555;PMS5003;69889;55.040;73.076;2023-07-13T10:24:24;12.00;11.00;8.00
80555;PMS5003;69889;55.040;73.076;2023-07-13T10:29:21;11.00;10.75;8.00
80555;PMS5003;69889;55.040;73.076;2023-07-13T10:31:51;11.00;11.00;8.00
80555;PMS5003;69889;55.040;73.076;2023-07-13T10:34:17;13.50;12.50;9.00
80555;PMS5003;69889;55.040;73.076;2023-07-13T10:36:45;13.25;12.00;8.00
80555;PMS5003;69889;55.040;73.076;2023-07-13T10:39:21;14.00;13.00;8.00
80555;PMS5003;69889;55.040;73.076;2023-07-13T10:41:59;13.00;12.00;9.00
80555;PMS5003;69889;55.040;73.076;2023-07-13T10:44:29;15.00;14.00;10.00
80555;PMS5003;69889;55.040;73.076;2023-07-13T10:47:04;15.00;14.00;9.00
80555;PMS5003;69889;55.040;73.076;2023-07-13T10:49:33;16.00;15.00;10.00
80555;PMS5003;69889;55.040;73.076;2023-07-13T10:52:01;14.00;14.00;10.00
80555;PMS5003;69889;55.040;73.076;2023-07-13T10:59:40;12.25;11.50;8.00
80555;PMS5003;69889;55.040;73.076;2023-07-13T11:02:11;13.00;13.00;10.00
80555;PMS5003;69889;55.040;73.076;2023-07-13T11:04:40;13.00;13.00;9.00
80555;PMS5003;69889;55.040;73.076;2023-07-13T11:07:20;13.50;12.50;9.00
80555;PMS5003;69889;55.040;73.076;2023-07-13T11:09:51;14.00;13.00;9.00
80555;PMS5003;69889;55.040;73.076;2023-07-13T11:22:53;13.25;12.00;9.00
80555;PMS5003;69889;55.040;73.076;2023-07-13T11:25:33;13.50;12.75;9.00
80555;PMS5003;69889;55.040;73.076;2023-07-13T11:30:40;13.00;13.00;9.00
80555;PMS5003;69889;55.040;73.076;2023-07-13T11:33:19;14.00;13.00;10.00
80555;PMS5003;69889;55.040;73.076;2023-07-13T11:38:18;14.00;13.25;9.00
80555;PMS5003;69889;55.040;73.076;2023-07-13T11:40:45;15.00;13.00;9.00
80555;PMS5003;69889;55.040;73.076;2023-07-13T11:43:14;14.00;13.00;9.00
80555;PMS5003;69889;55.040;73.076;2023-07-13T11:45:42;12.75;12.00;9.00
80555;PMS5003;69889;55.040;73.076;2023-07-13T11:48:22;12.00;11.00;8.00
80555;PMS5003;69889;55.040;73.076;2023-07-13T11:50:50;11.00;10.50;8.00
80555;PMS5003;69889;55.040;73.076;2023-07-13T11:53:18;14.00;12.00;8.00
80555;PMS5003;69889;55.040;73.076;2023-07-13T11:55:50;13.50;12.00;8.50
80555;PMS5003;69889;55.040;73.076;2023-07-13T11:58:33;13.00;12.00;8.00
80555;PMS5003;69889;55.040;73.076;2023-07-13T12:01:01;12.00;11.00;7.75
80555;PMS5003;69889;55.040;73.076;2023-07-13T12:03:49;13.00;12.00;9.00
80555;PMS5003;69889;55.040;73.076;2023-07-13T12:06:26;16.00;14.75;9.00
80555;PMS5003;69889;55.040;73.076;2023-07-13T12:08:58;15.50;14.00;9.50
80555;PMS5003;69889;55.040;73.076;2023-07-13T12:11:24;13.50;12.50;9.00
80555;PMS5003;69889;55.040;73.076;2023-07-13T12:13:51;14.00;13.00;8.00
80555;PMS5003;69889;55.040;73.076;2023-07-13T12:16:28;12.50;12.00;8.00
80555;PMS5003;69889;55.040;73.076;2023-07-13T12:18:55;14.00;13.00;8.00
80555;PMS5003;69889;55.040;73.076;2023-07-13T12:21:25;14.00;12.75;9.00
80555;PMS5003;69889;55.040;73.076;2023-07-13T12:23:55;15.00;14.00;10.25
80555;PMS5003;69889;55.040;73.076;2023-07-13T12:26:22;16.00;15.00;10.50
80555;PMS5003;69889;55.040;73.076;2023-07-13T12:28:51;19.00;17.50;11.00
80555;PMS5003;69889;55.040;73.076;2023-07-13T12:33:55;14.75;13.00;9.00
80555;PMS5003;69889;55.040;73.076;2023-07-13T12:36:23;14.00;13.00;8.00
80555;PMS5003;69889;55.040;73.076;2023-07-13T12:38:49;12.50;11.50;8.00
80555;PMS5003;69889;55.040;73.076;2023-07-13T12:41:17;13.00;12.00;8.00
80555;PMS5003;69889;55.040;73.076;2023-07-13T12:43:43;13.00;12.00;9.00
80555;PMS5003;69889;55.040;73.076;2023-07-13T12:46:16;14.00;12.00;8.50
80555;PMS5003;69889;55.040;73.076;2023-07-13T12:48:43;13.50;13.00;9.00
80555;PMS5003;69889;55.040;73.076;2023-07-13T12:51:12;12.25;12.00;9.00
80555;PMS5003;69889;55.040;73.076;2023-07-13T12:53:43;14.00;13.00;9.50
80555;PMS5003;69889;55.040;73.076;2023-07-13T12:56:21;15.50;14.75;10.00
80555;PMS5003;69889;55.040;73.076;2023-07-13T12:58:49;16.00;14.75;10.00
80555;PMS5003;69889;55.040;73.076;2023-07-13T13:01:21;15.00;14.00;10.00
80555;PMS5003;69889;55.040;73.076;2023-07-13T13:03:50;14.00;13.00;9.00
80555;PMS5003;69889;55.040;73.076;2023-07-13T13:06:23;13.25;12.00;9.00
80555;PMS5003;69889;55.040;73.076;2023-07-13T13:08:51;16.00;15.00;10.00
80555;PMS5003;69889;55.040;73.076;2023-07-13T13:11:18;14.00;13.75;10.00
80555;PMS5003;69889;55.040;73.076;2023-07-13T13:13:45;14.75;13.75;10.00
80555;PMS5003;69889;55.040;73.076;2023-07-13T13:16:29;15.00;14.00;9.00
80555;PMS5003;69889;55.040;73.076;2023-07-13T13:18:59;13.00;12.25;8.75
80555;PMS5003;69889;55.040;73.076;2023-07-13T13:21:28;14.00;14.00;10.00
80555;PMS5003;69889;55.040;73.076;2023-07-13T13:23:54;15.25;14.00;9.00
80555;PMS5003;69889;55.040;73.076;2023-07-13T13:26:22;14.00;12.25;8.00
80555;PMS5003;69889;55.040;73.076;2023-07-13T13:28:48;16.00;14.25;9.50
80555;PMS5003;69889;55.040;73.076;2023-07-13T13:31:15;15.00;14.00;10.00
80555;PMS5003;69889;55.040;73.076;2023-07-13T13:33:44;13.00;12.50;9.00
80555;PMS5003;69889;55.040;73.076;2023-07-13T13:36:16;14.00;13.00;10.00
80555;PMS5003;69889;55.040;73.076;2023-07-13T13:38:43;13.00;12.25;9.00
80555;PMS5003;69889;55.040;73.076;2023-07-13T13:41:12;13.25;12.00;9.00
80555;PMS5003;69889;55.040;73.076;2023-07-13T13:43:40;13.00;12.00;8.75
80555;PMS5003;69889;55.040;73.076;2023-07-13T13:46:14;12.75;11.50;8.00
80555;PMS5003;69889;55.040;73.076;2023-07-13T13:48:41;13.25;12.00;9.00
80555;PMS5003;69889;55.040;73.076;2023-07-13T13:53:40;13.25;12.50;9.00
80555;PMS5003;69889;55.040;73.076;2023-07-13T13:56:07;14.00;13.00;10.00
80555;PMS5003;69889;55.040;73.076;2023-07-13T13:58:33;14.00;14.00;10.00
80555;PMS5003;69889;55.040;73.076;2023-07-13T14:01:00;16.00;14.75;9.50
80555;PMS5003;69889;55.040;73.076;2023-07-13T14:03:27;16.00;15.00;10.00
80555;PMS5003;69889;55.040;73.076;2023-07-13T14:05:54;14.00;13.00;9.00
80555;PMS5003;69889;55.040;73.076;2023-07-13T14:08:23;16.00;15.00;11.00
80555;PMS5003;69889;55.040;73.076;2023-07-13T14:10:52;15.50;14.00;9.25
80555;PMS5003;69889;55.040;73.076;2023-07-13T14:13:21;15.25;14.00;9.00
80555;PMS5003;69889;55.040;73.076;2023-07-13T14:15:47;18.00;17.00;12.00
80555;PMS5003;69889;55.040;73.076;2023-07-13T14:18:15;15.00;14.00;9.00
80555;PMS5003;69889;55.040;73.076;2023-07-13T14:20:45;16.50;16.00;11.00
80555;PMS5003;69889;55.040;73.076;2023-07-13T14:23:14;13.75;12.00;8.50
80555;PMS5003;69889;55.040;73.076;2023-07-13T14:25:42;19.00;17.00;11.00
80555;PMS5003;69889;55.040;73.076;2023-07-13T14:28:19;14.50;13.50;10.00
80555;PMS5003;69889;55.040;73.076;2023-07-13T14:30:48;17.00;16.00;11.00